sensor_id;sensor_type;location;lat;lon;timestamp;pressure;altitude;pressure_sealevel;temperature
77331;BMP280;66405;48.328;7.820;2023-05-03T00:02:23;100695.66;;;12.10
77331;BMP280;66405;48.328;7.820;2023-05-03T00:05:25;100690.34;;;12.07
77331;BMP280;66405;48.328;7.820;2023-05-03T00:08:25;100698.91;;;12.05
77331;BMP280;66405;48.328;7.820;2023-05-03T00:11:26;100690.91;;;12.01
77331;BMP280;66405;48.328;7.820;2023-05-03T00:14:27;100692.66;;;11.95
77331;BMP280;66405;48.328;7.820;2023-05-03T00:17:27;100693.16;;;11.90
77331;BMP280;66405;48.328;7.820;2023-05-03T00:20:27;100699.16;;;11.85
77331;BMP280;66405;48.328;7.820;2023-05-03T00:23:28;100695.75;;;11.81
77331;BMP280;66405;48.328;7.820;2023-05-03T00:26:29;100693.63;;;11.76
77331;BMP280;66405;48.328;7.820;2023-05-03T00:29:29;100699.56;;;11.70
77331;BMP280;66405;48.328;7.820;2023-05-03T00:32:29;100693.19;;;11.64
77331;BMP280;66405;48.328;7.820;2023-05-03T00:35:30;100690.56;;;11.61
77331;BMP280;66405;48.328;7.820;2023-05-03T00:38:30;100689.56;;;11.55
77331;BMP280;66405;48.328;7.820;2023-05-03T00:41:31;100690.88;;;11.50
77331;BMP280;66405;48.328;7.820;2023-05-03T00:44:31;100690.22;;;11.46
77331;BMP280;66405;48.328;7.820;2023-05-03T00:47:32;100688.81;;;11.41
77331;BMP280;66405;48.328;7.820;2023-05-03T00:50:34;100686.28;;;11.34
77331;BMP280;66405;48.328;7.820;2023-05-03T00:53:35;100689.63;;;11.25
77331;BMP280;66405;48.328;7.820;2023-05-03T00:56:37;100681.25;;;11.19
77331;BMP280;66405;48.328;7.820;2023-05-03T00:59:38;100689.13;;;11.14
77331;BMP280;66405;48.328;7.820;2023-05-03T01:02:39;100690.44;;;11.09
77331;BMP280;66405;48.328;7.820;2023-05-03T01:06:07;100679.69;;;11.06
77331;BMP280;66405;48.328;7.820;2023-05-03T01:19:18;100667.75;;;10.90
77331;BMP280;66405;48.328;7.820;2023-05-03T01:25:41;100661.00;;;10.82
77331;BMP280;66405;48.328;7.820;2023-05-03T01:28:42;100666.47;;;10.78
77331;BMP280;66405;48.328;7.820;2023-05-03T01:31:56;100663.13;;;10.74
77331;BMP280;66405;48.328;7.820;2023-05-03T01:35:06;100659.75;;;10.70
77331;BMP280;66405;48.328;7.820;2023-05-03T01:38:09;100660.59;;;10.67
77331;BMP280;66405;48.328;7.820;2023-05-03T01:41:11;100659.94;;;10.63
77331;BMP280;66405;48.328;7.820;2023-05-03T01:44:13;100663.91;;;10.58
77331;BMP280;66405;48.328;7.820;2023-05-03T01:47:15;100660.53;;;10.54
77331;BMP280;66405;48.328;7.820;2023-05-03T01:50:15;100666.03;;;10.50
77331;BMP280;66405;48.328;7.820;2023-05-03T01:53:16;100672.25;;;10.47
77331;BMP280;66405;48.328;7.820;2023-05-03T01:56:17;100666.22;;;10.43
77331;BMP280;66405;48.328;7.820;2023-05-03T01:59:17;100655.47;;;10.40
77331;BMP280;66405;48.328;7.820;2023-05-03T02:02:18;100669.81;;;10.37
77331;BMP280;66405;48.328;7.820;2023-05-03T02:05:18;100657.59;;;10.32
77331;BMP280;66405;48.328;7.820;2023-05-03T02:08:20;100660.38;;;10.28
77331;BMP280;66405;48.328;7.820;2023-05-03T02:11:21;100655.81;;;10.25
77331;BMP280;66405;48.328;7.820;2023-05-03T02:14:22;100651.28;;;10.22
77331;BMP280;66405;48.328;7.820;2023-05-03T02:17:23;100652.44;;;10.21
77331;BMP280;66405;48.328;7.820;2023-05-03T02:20:25;100657.94;;;10.17
77331;BMP280;66405;48.328;7.820;2023-05-03T02:23:26;100659.13;;;10.16
77331;BMP280;66405;48.328;7.820;2023-05-03T02:26:27;100655.28;;;10.14
77331;BMP280;66405;48.328;7.820;2023-05-03T02:29:28;100659.19;;;10.13
77331;BMP280;66405;48.328;7.820;2023-05-03T02:32:28;100654.63;;;10.10
77331;BMP280;66405;48.328;7.820;2023-05-03T02:35:29;100654.72;;;10.06
77331;BMP280;66405;48.328;7.820;2023-05-03T02:38:30;100645.09;;;10.05
77331;BMP280;66405;48.328;7.820;2023-05-03T02:41:30;100652.09;;;10.02
77331;BMP280;66405;48.328;7.820;2023-05-03T02:44:32;100655.19;;;10.01
77331;BMP280;66405;48.328;7.820;2023-05-03T02:47:32;100655.28;;;9.97
77331;BMP280;66405;48.328;7.820;2023-05-03T02:50:33;100653.41;;;9.94
77331;BMP280;66405;48.328;7.820;2023-05-03T02:53:33;100653.50;;;9.91
77331;BMP280;66405;48.328;7.820;2023-05-03T02:56:36;100659.75;;;9.88
77331;BMP280;66405;48.328;7.820;2023-05-03T02:59:37;100660.56;;;9.84
77331;BMP280;66405;48.328;7.820;2023-05-03T03:02:38;100669.53;;;9.81
77331;BMP280;66405;48.328;7.820;2023-05-03T03:05:38;100664.19;;;9.78
77331;BMP280;66405;48.328;7.820;2023-05-03T03:08:39;100668.91;;;9.74
77331;BMP280;66405;48.328;7.820;2023-05-03T03:11:41;100661.22;;;9.72
77331;BMP280;66405;48.328;7.820;2023-05-03T03:14:42;100670.56;;;9.67
77331;BMP280;66405;48.328;7.820;2023-05-03T03:17:44;100672.16;;;9.65
77331;BMP280;66405;48.328;7.820;2023-05-03T03:20:45;100674.53;;;9.63
77331;BMP280;66405;48.328;7.820;2023-05-03T03:23:46;100675.38;;;9.60
77331;BMP280;66405;48.328;7.820;2023-05-03T03:26:50;100673.06;;;9.58
77331;BMP280;66405;48.328;7.820;2023-05-03T03:29:51;100668.50;;;9.55
77331;BMP280;66405;48.328;7.820;2023-05-03T03:32:51;100675.09;;;9.54
77331;BMP280;66405;48.328;7.820;2023-05-03T03:35:59;100667.00;;;9.54
77331;BMP280;66405;48.328;7.820;2023-05-03T03:39:05;100661.69;;;9.50
77331;BMP280;66405;48.328;7.820;2023-05-03T03:42:10;100672.13;;;9.48
77331;BMP280;66405;48.328;7.820;2023-05-03T03:45:12;100669.81;;;9.47
77331;BMP280;66405;48.328;7.820;2023-05-03T03:48:13;100669.06;;;9.46
77331;BMP280;66405;48.328;7.820;2023-05-03T03:51:13;100667.56;;;9.45
77331;BMP280;66405;48.328;7.820;2023-05-03T03:54:19;100667.56;;;9.45
77331;BMP280;66405;48.328;7.820;2023-05-03T03:57:22;100673.38;;;9.44
77331;BMP280;66405;48.328;7.820;2023-05-03T04:00:25;100667.19;;;9.43
77331;BMP280;66405;48.328;7.820;2023-05-03T04:03:36;100659.88;;;9.44
77331;BMP280;66405;48.328;7.820;2023-05-03T04:06:37;100665.28;;;9.44
77331;BMP280;66405;48.328;7.820;2023-05-03T04:09:41;100661.81;;;9.43
77331;BMP280;66405;48.328;7.820;2023-05-03T04:12:43;100654.13;;;9.42
77331;BMP280;66405;48.328;7.820;2023-05-03T04:15:43;100658.34;;;9.43
77331;BMP280;66405;48.328;7.820;2023-05-03T04:18:43;100655.66;;;9.43
77331;BMP280;66405;48.328;7.820;2023-05-03T04:21:44;100665.28;;;9.44
77331;BMP280;66405;48.328;7.820;2023-05-03T04:24:45;100669.06;;;9.46
77331;BMP280;66405;48.328;7.820;2023-05-03T04:27:46;100664.03;;;9.48
77331;BMP280;66405;48.328;7.820;2023-05-03T04:30:47;100671.34;;;9.48
77331;BMP280;66405;48.328;7.820;2023-05-03T04:33:52;100676.34;;;9.49
77331;BMP280;66405;48.328;7.820;2023-05-03T04:36:53;100666.31;;;9.50
77331;BMP280;66405;48.328;7.820;2023-05-03T04:39:54;100670.53;;;9.51
77331;BMP280;66405;48.328;7.820;2023-05-03T04:42:54;100658.56;;;9.52
77331;BMP280;66405;48.328;7.820;2023-05-03T04:45:57;100660.41;;;9.55
77331;BMP280;66405;48.328;7.820;2023-05-03T04:49:00;100668.09;;;9.57
77331;BMP280;66405;48.328;7.820;2023-05-03T04:52:01;100671.47;;;9.61
77331;BMP280;66405;48.328;7.820;2023-05-03T04:55:02;100677.56;;;9.65
77331;BMP280;66405;48.328;7.820;2023-05-03T04:58:05;100679.03;;;9.70
77331;BMP280;66405;48.328;7.820;2023-05-03T05:01:09;100676.25;;;9.73
77331;BMP280;66405;48.328;7.820;2023-05-03T05:04:10;100683.44;;;9.80
77331;BMP280;66405;48.328;7.820;2023-05-03T05:07:16;100679.06;;;9.86
77331;BMP280;66405;48.328;7.820;2023-05-03T05:10:18;100680.84;;;9.93
77331;BMP280;66405;48.328;7.820;2023-05-03T05:13:19;100686.41;;;10.02
77331;BMP280;66405;48.328;7.820;2023-05-03T05:16:19;100682.72;;;10.12
77331;BMP280;66405;48.328;7.820;2023-05-03T05:19:25;100692.13;;;10.24
77331;BMP280;66405;48.328;7.820;2023-05-03T05:22:25;100690.38;;;10.34
77331;BMP280;66405;48.328;7.820;2023-05-03T05:25:30;100697.13;;;10.42
77331;BMP280;66405;48.328;7.820;2023-05-03T05:28:33;100685.63;;;10.55
77331;BMP280;66405;48.328;7.820;2023-05-03T05:31:34;100690.00;;;10.65
77331;BMP280;66405;48.328;7.820;2023-05-03T05:34:39;100678.94;;;10.76
77331;BMP280;66405;48.328;7.820;2023-05-03T05:37:40;100684.38;;;10.89
77331;BMP280;66405;48.328;7.820;2023-05-03T05:40:41;100682.53;;;11.02
77331;BMP280;66405;48.328;7.820;2023-05-03T05:43:41;100689.56;;;11.12
77331;BMP280;66405;48.328;7.820;2023-05-03T05:46:44;100684.31;;;11.22
77331;BMP280;66405;48.328;7.820;2023-05-03T05:49:46;100683.44;;;11.25
77331;BMP280;66405;48.328;7.820;2023-05-03T05:52:50;100677.84;;;11.32
77331;BMP280;66405;48.328;7.820;2023-05-03T05:55:50;100677.28;;;11.37
77331;BMP280;66405;48.328;7.820;2023-05-03T05:58:51;100685.97;;;11.45
77331;BMP280;66405;48.328;7.820;2023-05-03T06:01:52;100680.25;;;11.56
77331;BMP280;66405;48.328;7.820;2023-05-03T06:04:54;100674.63;;;11.63
77331;BMP280;66405;48.328;7.820;2023-05-03T06:07:56;100683.66;;;11.73
77331;BMP280;66405;48.328;7.820;2023-05-03T06:10:57;100692.53;;;11.86
77331;BMP280;66405;48.328;7.820;2023-05-03T06:14:00;100689.06;;;11.98
77331;BMP280;66405;48.328;7.820;2023-05-03T06:17:04;100691.22;;;12.03
77331;BMP280;66405;48.328;7.820;2023-05-03T06:20:05;100687.75;;;12.16
77331;BMP280;66405;48.328;7.820;2023-05-03T06:23:06;100680.34;;;12.29
77331;BMP280;66405;48.328;7.820;2023-05-03T06:26:10;100678.19;;;12.37
77331;BMP280;66405;48.328;7.820;2023-05-03T06:29:11;100685.94;;;12.48
77331;BMP280;66405;48.328;7.820;2023-05-03T06:32:12;100684.50;;;12.56
77331;BMP280;66405;48.328;7.820;2023-05-03T06:35:13;100692.84;;;12.62
77331;BMP280;66405;48.328;7.820;2023-05-03T06:38:14;100681.09;;;12.78
77331;BMP280;66405;48.328;7.820;2023-05-03T06:41:17;100672.44;;;12.92
77331;BMP280;66405;48.328;7.820;2023-05-03T06:44:18;100673.41;;;12.98
77331;BMP280;66405;48.328;7.820;2023-05-03T06:47:19;100674.66;;;13.06
77331;BMP280;66405;48.328;7.820;2023-05-03T06:50:20;100670.16;;;13.13
77331;BMP280;66405;48.328;7.820;2023-05-03T06:53:21;100667.22;;;13.20
77331;BMP280;66405;48.328;7.820;2023-05-03T06:56:22;100660.00;;;13.26
77331;BMP280;66405;48.328;7.820;2023-05-03T06:59:23;100662.44;;;13.33
77331;BMP280;66405;48.328;7.820;2023-05-03T07:02:25;100656.88;;;13.37
77331;BMP280;66405;48.328;7.820;2023-05-03T07:05:26;100659.03;;;13.42
77331;BMP280;66405;48.328;7.820;2023-05-03T07:08:27;100656.75;;;13.40
77331;BMP280;66405;48.328;7.820;2023-05-03T07:11:27;100653.31;;;13.49
77331;BMP280;66405;48.328;7.820;2023-05-03T07:14:29;100658.78;;;13.58
77331;BMP280;66405;48.328;7.820;2023-05-03T07:17:30;100660.63;;;13.62
77331;BMP280;66405;48.328;7.820;2023-05-03T07:20:31;100657.31;;;13.67
77331;BMP280;66405;48.328;7.820;2023-05-03T07:23:31;100655.38;;;13.77
77331;BMP280;66405;48.328;7.820;2023-05-03T07:26:33;100655.84;;;13.84
77331;BMP280;66405;48.328;7.820;2023-05-03T07:29:33;100656.31;;;13.92
77331;BMP280;66405;48.328;7.820;2023-05-03T07:32:34;100657.22;;;13.98
77331;BMP280;66405;48.328;7.820;2023-05-03T07:35:34;100654.09;;;14.09
77331;BMP280;66405;48.328;7.820;2023-05-03T07:38:35;100656.38;;;14.29
77331;BMP280;66405;48.328;7.820;2023-05-03T07:41:36;100653.66;;;14.48
77331;BMP280;66405;48.328;7.820;2023-05-03T07:44:37;100652.44;;;14.58
77331;BMP280;66405;48.328;7.820;2023-05-03T07:47:38;100657.00;;;14.61
77331;BMP280;66405;48.328;7.820;2023-05-03T07:50:42;100654.56;;;14.72
77331;BMP280;66405;48.328;7.820;2023-05-03T07:53:43;100644.06;;;14.89
77331;BMP280;66405;48.328;7.820;2023-05-03T07:56:43;100644.84;;;14.90
77331;BMP280;66405;48.328;7.820;2023-05-03T07:59:44;100650.75;;;14.98
77331;BMP280;66405;48.328;7.820;2023-05-03T08:02:46;100641.63;;;15.10
77331;BMP280;66405;48.328;7.820;2023-05-03T08:05:49;100644.00;;;15.17
77331;BMP280;66405;48.328;7.820;2023-05-03T08:08:50;100648.66;;;15.26
77331;BMP280;66405;48.328;7.820;2023-05-03T08:11:51;100653.72;;;15.42
77331;BMP280;66405;48.328;7.820;2023-05-03T08:14:53;100652.13;;;15.69
77331;BMP280;66405;48.328;7.820;2023-05-03T08:17:54;100653.91;;;15.96
77331;BMP280;66405;48.328;7.820;2023-05-03T08:20:54;100654.13;;;16.08
77331;BMP280;66405;48.328;7.820;2023-05-03T08:23:55;100654.53;;;16.15
77331;BMP280;66405;48.328;7.820;2023-05-03T08:26:56;100655.59;;;16.33
77331;BMP280;66405;48.328;7.820;2023-05-03T08:29:58;100653.38;;;16.46
77331;BMP280;66405;48.328;7.820;2023-05-03T08:33:02;100660.06;;;16.60
77331;BMP280;66405;48.328;7.820;2023-05-03T08:36:05;100659.59;;;16.77
77331;BMP280;66405;48.328;7.820;2023-05-03T08:39:06;100653.75;;;16.99
77331;BMP280;66405;48.328;7.820;2023-05-03T08:42:07;100650.56;;;17.21
77331;BMP280;66405;48.328;7.820;2023-05-03T08:45:10;100649.41;;;17.43
77331;BMP280;66405;48.328;7.820;2023-05-03T08:48:13;100642.75;;;17.64
77331;BMP280;66405;48.328;7.820;2023-05-03T08:51:15;100646.91;;;17.80
77331;BMP280;66405;48.328;7.820;2023-05-03T08:54:19;100649.53;;;17.95
77331;BMP280;66405;48.328;7.820;2023-05-03T08:57:22;100648.09;;;18.00
77331;BMP280;66405;48.328;7.820;2023-05-03T09:00:27;100648.44;;;18.07
77331;BMP280;66405;48.328;7.820;2023-05-03T09:03:30;100649.00;;;18.11
77331;BMP280;66405;48.328;7.820;2023-05-03T09:06:32;100654.50;;;18.17
77331;BMP280;66405;48.328;7.820;2023-05-03T09:09:34;100649.75;;;18.38
77331;BMP280;66405;48.328;7.820;2023-05-03T09:12:36;100650.84;;;18.52
77331;BMP280;66405;48.328;7.820;2023-05-03T09:15:36;100657.97;;;18.70
77331;BMP280;66405;48.328;7.820;2023-05-03T09:18:37;100644.66;;;18.83
77331;BMP280;66405;48.328;7.820;2023-05-03T09:21:40;100641.03;;;18.98
77331;BMP280;66405;48.328;7.820;2023-05-03T09:24:50;100640.09;;;19.12
77331;BMP280;66405;48.328;7.820;2023-05-03T09:28:00;100635.41;;;19.18
77331;BMP280;66405;48.328;7.820;2023-05-03T09:31:05;100639.97;;;19.33
77331;BMP280;66405;48.328;7.820;2023-05-03T09:34:21;100635.81;;;19.54
77331;BMP280;66405;48.328;7.820;2023-05-03T09:37:35;100625.16;;;19.62
77331;BMP280;66405;48.328;7.820;2023-05-03T09:40:45;100624.16;;;19.77
77331;BMP280;66405;48.328;7.820;2023-05-03T09:43:48;100627.44;;;19.81
77331;BMP280;66405;48.328;7.820;2023-05-03T09:47:04;100628.47;;;20.00
77331;BMP280;66405;48.328;7.820;2023-05-03T09:50:05;100623.50;;;20.21
77331;BMP280;66405;48.328;7.820;2023-05-03T09:53:06;100601.06;;;20.29
77331;BMP280;66405;48.328;7.820;2023-05-03T09:56:10;100613.78;;;20.43
77331;BMP280;66405;48.328;7.820;2023-05-03T09:59:15;100610.25;;;20.71
77331;BMP280;66405;48.328;7.820;2023-05-03T10:02:16;100608.22;;;20.94
77331;BMP280;66405;48.328;7.820;2023-05-03T10:05:18;100610.66;;;21.14
77331;BMP280;66405;48.328;7.820;2023-05-03T10:08:29;100609.56;;;21.29
77331;BMP280;66405;48.328;7.820;2023-05-03T10:11:34;100609.94;;;21.56
77331;BMP280;66405;48.328;7.820;2023-05-03T10:14:41;100596.25;;;21.86
77331;BMP280;66405;48.328;7.820;2023-05-03T10:17:43;100598.59;;;22.06
77331;BMP280;66405;48.328;7.820;2023-05-03T10:20:57;100607.66;;;22.26
77331;BMP280;66405;48.328;7.820;2023-05-03T10:24:14;100596.28;;;22.41
77331;BMP280;66405;48.328;7.820;2023-05-03T10:27:15;100598.09;;;22.63
77331;BMP280;66405;48.328;7.820;2023-05-03T10:30:33;100587.63;;;22.80
77331;BMP280;66405;48.328;7.820;2023-05-03T10:33:34;100588.47;;;22.94
77331;BMP280;66405;48.328;7.820;2023-05-03T10:36:35;100578.94;;;22.95
77331;BMP280;66405;48.328;7.820;2023-05-03T10:39:43;100577.81;;;23.23
77331;BMP280;66405;48.328;7.820;2023-05-03T10:42:50;100569.56;;;23.55
77331;BMP280;66405;48.328;7.820;2023-05-03T10:46:04;100570.16;;;23.81
77331;BMP280;66405;48.328;7.820;2023-05-03T10:49:18;100565.06;;;23.85
77331;BMP280;66405;48.328;7.820;2023-05-03T10:55:35;100542.59;;;23.94
77331;BMP280;66405;48.328;7.820;2023-05-03T10:58:54;100541.72;;;23.86
77331;BMP280;66405;48.328;7.820;2023-05-03T11:02:08;100541.25;;;23.87
77331;BMP280;66405;48.328;7.820;2023-05-03T11:05:14;100531.47;;;24.13
77331;BMP280;66405;48.328;7.820;2023-05-03T11:08:21;100529.03;;;24.50
77331;BMP280;66405;48.328;7.820;2023-05-03T11:11:22;100525.28;;;24.74
77331;BMP280;66405;48.328;7.820;2023-05-03T11:14:22;100525.91;;;25.01
77331;BMP280;66405;48.328;7.820;2023-05-03T11:17:22;100525.94;;;25.43
77331;BMP280;66405;48.328;7.820;2023-05-03T11:20:25;100525.22;;;25.71
77331;BMP280;66405;48.328;7.820;2023-05-03T11:23:27;100523.88;;;25.86
77331;BMP280;66405;48.328;7.820;2023-05-03T11:26:38;100522.91;;;26.12
77331;BMP280;66405;48.328;7.820;2023-05-03T11:29:39;100518.81;;;26.42
77331;BMP280;66405;48.328;7.820;2023-05-03T11:32:41;100507.72;;;26.49
77331;BMP280;66405;48.328;7.820;2023-05-03T11:35:42;100508.13;;;26.61
77331;BMP280;66405;48.328;7.820;2023-05-03T11:38:44;100491.38;;;26.90
77331;BMP280;66405;48.328;7.820;2023-05-03T11:42:00;100494.72;;;27.11
77331;BMP280;66405;48.328;7.820;2023-05-03T11:45:02;100487.69;;;27.34
77331;BMP280;66405;48.328;7.820;2023-05-03T11:48:05;100487.47;;;27.62
77331;BMP280;66405;48.328;7.820;2023-05-03T11:51:07;100482.19;;;27.89
77331;BMP280;66405;48.328;7.820;2023-05-03T11:54:10;100473.47;;;28.34
77331;BMP280;66405;48.328;7.820;2023-05-03T11:57:12;100475.03;;;28.52
77331;BMP280;66405;48.328;7.820;2023-05-03T12:00:14;100472.34;;;28.70
77331;BMP280;66405;48.328;7.820;2023-05-03T12:03:18;100473.75;;;28.78
77331;BMP280;66405;48.328;7.820;2023-05-03T12:06:19;100463.06;;;28.92
77331;BMP280;66405;48.328;7.820;2023-05-03T12:09:23;100456.75;;;29.17
77331;BMP280;66405;48.328;7.820;2023-05-03T12:12:24;100461.09;;;29.45
77331;BMP280;66405;48.328;7.820;2023-05-03T12:15:35;100453.72;;;29.57
77331;BMP280;66405;48.328;7.820;2023-05-03T12:18:48;100456.31;;;29.73
77331;BMP280;66405;48.328;7.820;2023-05-03T12:21:53;100459.97;;;29.93
77331;BMP280;66405;48.328;7.820;2023-05-03T12:24:54;100444.34;;;30.07
77331;BMP280;66405;48.328;7.820;2023-05-03T12:27:57;100442.09;;;30.23
77331;BMP280;66405;48.328;7.820;2023-05-03T12:30:59;100435.16;;;30.51
77331;BMP280;66405;48.328;7.820;2023-05-03T12:34:01;100428.44;;;30.74
77331;BMP280;66405;48.328;7.820;2023-05-03T12:37:03;100418.06;;;30.84
77331;BMP280;66405;48.328;7.820;2023-05-03T12:40:05;100434.97;;;30.96
77331;BMP280;66405;48.328;7.820;2023-05-03T12:43:05;100420.00;;;31.20
77331;BMP280;66405;48.328;7.820;2023-05-03T12:46:06;100423.97;;;31.27
77331;BMP280;66405;48.328;7.820;2023-05-03T12:49:06;100422.78;;;31.20
77331;BMP280;66405;48.328;7.820;2023-05-03T12:52:07;100418.09;;;31.33
77331;BMP280;66405;48.328;7.820;2023-05-03T12:55:08;100406.16;;;31.32
77331;BMP280;66405;48.328;7.820;2023-05-03T12:58:09;100400.13;;;31.16
77331;BMP280;66405;48.328;7.820;2023-05-03T13:01:09;100395.00;;;31.32
77331;BMP280;66405;48.328;7.820;2023-05-03T13:04:11;100388.03;;;31.53
77331;BMP280;66405;48.328;7.820;2023-05-03T13:07:13;100402.44;;;31.69
77331;BMP280;66405;48.328;7.820;2023-05-03T13:10:14;100388.72;;;31.73
77331;BMP280;66405;48.328;7.820;2023-05-03T13:13:15;100388.72;;;31.73
77331;BMP280;66405;48.328;7.820;2023-05-03T13:16:16;100384.75;;;31.86
77331;BMP280;66405;48.328;7.820;2023-05-03T13:19:18;100379.88;;;31.86
77331;BMP280;66405;48.328;7.820;2023-05-03T13:22:21;100381.72;;;32.03
77331;BMP280;66405;48.328;7.820;2023-05-03T13:25:22;100378.13;;;32.12
77331;BMP280;66405;48.328;7.820;2023-05-03T13:28:22;100372.91;;;32.28
77331;BMP280;66405;48.328;7.820;2023-05-03T13:31:26;100364.38;;;32.26
77331;BMP280;66405;48.328;7.820;2023-05-03T13:34:29;100359.72;;;32.41
77331;BMP280;66405;48.328;7.820;2023-05-03T13:37:32;100360.47;;;32.41
77331;BMP280;66405;48.328;7.820;2023-05-03T13:40:32;100355.53;;;32.51
77331;BMP280;66405;48.328;7.820;2023-05-03T13:43:33;100362.44;;;32.29
77331;BMP280;66405;48.328;7.820;2023-05-03T13:46:35;100356.47;;;32.44
77331;BMP280;66405;48.328;7.820;2023-05-03T13:49:36;100351.59;;;32.45
77331;BMP280;66405;48.328;7.820;2023-05-03T13:52:36;100350.41;;;32.26
77331;BMP280;66405;48.328;7.820;2023-05-03T13:55:37;100340.13;;;31.88
77331;BMP280;66405;48.328;7.820;2023-05-03T13:58:37;100334.25;;;32.25
77331;BMP280;66405;48.328;7.820;2023-05-03T14:01:38;100334.28;;;32.58
77331;BMP280;66405;48.328;7.820;2023-05-03T14:04:40;100320.47;;;32.72
77331;BMP280;66405;48.328;7.820;2023-05-03T14:07:40;100332.09;;;32.90
77331;BMP280;66405;48.328;7.820;2023-05-03T14:10:42;100331.03;;;33.07
77331;BMP280;66405;48.328;7.820;2023-05-03T14:13:43;100324.47;;;33.02
77331;BMP280;66405;48.328;7.820;2023-05-03T14:16:44;100323.09;;;32.91
77331;BMP280;66405;48.328;7.820;2023-05-03T14:19:47;100315.94;;;33.00
77331;BMP280;66405;48.328;7.820;2023-05-03T14:22:48;100313.59;;;32.96
77331;BMP280;66405;48.328;7.820;2023-05-03T14:25:51;100311.25;;;33.14
77331;BMP280;66405;48.328;7.820;2023-05-03T14:28:51;100300.28;;;33.30
77331;BMP280;66405;48.328;7.820;2023-05-03T14:31:53;100310.75;;;33.65
77331;BMP280;66405;48.328;7.820;2023-05-03T14:34:57;100309.13;;;34.09
77331;BMP280;66405;48.328;7.820;2023-05-03T14:37:57;100314.44;;;34.54
77331;BMP280;66405;48.328;7.820;2023-05-03T14:40:58;100294.56;;;34.76
77331;BMP280;66405;48.328;7.820;2023-05-03T14:43:59;100302.78;;;34.72
77331;BMP280;66405;48.328;7.820;2023-05-03T14:46:59;100293.41;;;35.20
77331;BMP280;66405;48.328;7.820;2023-05-03T14:50:00;100291.16;;;36.02
77331;BMP280;66405;48.328;7.820;2023-05-03T14:53:00;100290.06;;;36.09
77331;BMP280;66405;48.328;7.820;2023-05-03T14:56:01;100288.72;;;36.10
77331;BMP280;66405;48.328;7.820;2023-05-03T14:59:01;100298.59;;;37.70
77331;BMP280;66405;48.328;7.820;2023-05-03T15:02:03;100289.34;;;39.19
77331;BMP280;66405;48.328;7.820;2023-05-03T15:05:03;100292.25;;;40.09
77331;BMP280;66405;48.328;7.820;2023-05-03T15:08:07;100289.59;;;41.20
77331;BMP280;66405;48.328;7.820;2023-05-03T15:11:07;100291.72;;;42.12
77331;BMP280;66405;48.328;7.820;2023-05-03T15:14:08;100293.38;;;43.02
77331;BMP280;66405;48.328;7.820;2023-05-03T15:17:09;100291.31;;;43.53
77331;BMP280;66405;48.328;7.820;2023-05-03T15:20:10;100281.91;;;43.95
77331;BMP280;66405;48.328;7.820;2023-05-03T15:23:12;100282.44;;;44.42
77331;BMP280;66405;48.328;7.820;2023-05-03T15:26:13;100285.69;;;44.87
77331;BMP280;66405;48.328;7.820;2023-05-03T15:29:13;100283.47;;;44.77
77331;BMP280;66405;48.328;7.820;2023-05-03T15:32:14;100283.81;;;45.20
77331;BMP280;66405;48.328;7.820;2023-05-03T15:35:15;100281.25;;;45.84
77331;BMP280;66405;48.328;7.820;2023-05-03T15:38:16;100274.25;;;46.50
77331;BMP280;66405;48.328;7.820;2023-05-03T15:41:19;100270.63;;;46.13
77331;BMP280;66405;48.328;7.820;2023-05-03T15:44:20;100276.31;;;46.07
77331;BMP280;66405;48.328;7.820;2023-05-03T15:47:21;100272.81;;;46.66
77331;BMP280;66405;48.328;7.820;2023-05-03T15:50:21;100269.19;;;46.00
77331;BMP280;66405;48.328;7.820;2023-05-03T15:53:25;100272.06;;;46.40
77331;BMP280;66405;48.328;7.820;2023-05-03T15:56:26;100274.13;;;45.93
77331;BMP280;66405;48.328;7.820;2023-05-03T15:59:30;100274.91;;;46.02
77331;BMP280;66405;48.328;7.820;2023-05-03T16:02:32;100274.91;;;46.06
77331;BMP280;66405;48.328;7.820;2023-05-03T16:05:33;100266.38;;;46.55
77331;BMP280;66405;48.328;7.820;2023-05-03T16:08:34;100258.53;;;46.59
77331;BMP280;66405;48.328;7.820;2023-05-03T16:11:35;100257.09;;;46.67
77331;BMP280;66405;48.328;7.820;2023-05-03T16:14:35;100258.50;;;46.84
77331;BMP280;66405;48.328;7.820;2023-05-03T16:17:36;100245.66;;;46.58
77331;BMP280;66405;48.328;7.820;2023-05-03T16:20:40;100242.78;;;46.50
77331;BMP280;66405;48.328;7.820;2023-05-03T16:23:41;100246.34;;;46.81
77331;BMP280;66405;48.328;7.820;2023-05-03T16:26:41;100249.94;;;46.61
77331;BMP280;66405;48.328;7.820;2023-05-03T16:29:42;100240.66;;;46.77
77331;BMP280;66405;48.328;7.820;2023-05-03T16:32:42;100243.44;;;46.98
77331;BMP280;66405;48.328;7.820;2023-05-03T16:35:43;100237.66;;;47.30
77331;BMP280;66405;48.328;7.820;2023-05-03T16:38:43;100240.97;;;47.82
77331;BMP280;66405;48.328;7.820;2023-05-03T16:41:43;100237.72;;;48.35
77331;BMP280;66405;48.328;7.820;2023-05-03T16:44:44;100237.84;;;48.19
77331;BMP280;66405;48.328;7.820;2023-05-03T16:47:46;100240.97;;;47.86
77331;BMP280;66405;48.328;7.820;2023-05-03T16:50:47;100242.38;;;47.87
77331;BMP280;66405;48.328;7.820;2023-05-03T16:53:47;100227.78;;;48.24
77331;BMP280;66405;48.328;7.820;2023-05-03T16:56:48;100239.84;;;48.35
77331;BMP280;66405;48.328;7.820;2023-05-03T16:59:49;100232.00;;;48.33
77331;BMP280;66405;48.328;7.820;2023-05-03T17:02:49;100240.16;;;47.96
77331;BMP280;66405;48.328;7.820;2023-05-03T17:05:51;100231.66;;;47.82
77331;BMP280;66405;48.328;7.820;2023-05-03T17:08:54;100237.50;;;47.61
77331;BMP280;66405;48.328;7.820;2023-05-03T17:11:55;100231.88;;;47.37
77331;BMP280;66405;48.328;7.820;2023-05-03T17:14:56;100237.72;;;47.10
77331;BMP280;66405;48.328;7.820;2023-05-03T17:17:57;100249.94;;;46.49
77331;BMP280;66405;48.328;7.820;2023-05-03T17:20:59;100250.19;;;45.07
77331;BMP280;66405;48.328;7.820;2023-05-03T17:24:01;100249.41;;;43.09
77331;BMP280;66405;48.328;7.820;2023-05-03T17:27:03;100248.06;;;41.33
77331;BMP280;66405;48.328;7.820;2023-05-03T17:30:04;100257.19;;;39.96
77331;BMP280;66405;48.328;7.820;2023-05-03T17:33:05;100255.31;;;39.15
77331;BMP280;66405;48.328;7.820;2023-05-03T17:36:08;100251.63;;;39.10